sensor_id;sensor_type;location;lat;lon;timestamp;temperature;humidity
65559;DHT22;52203;51.998;5.140;2022-11-14T16:43:39;0.21;118.99
65559;DHT22;52203;51.998;5.140;2022-11-14T16:46:06;0.24;118.99
65559;DHT22;52203;51.998;5.140;2022-11-14T16:48:31;0.24;118.99
65559;DHT22;52203;51.998;5.140;2022-11-14T16:51:01;0.18;118.99
65559;DHT22;52203;51.998;5.140;2022-11-14T16:53:28;0.17;118.99
65559;DHT22;52203;51.998;5.140;2022-11-14T16:55:54;0.27;118.99
65559;DHT22;52203;51.998;5.140;2022-11-14T16:58:20;0.24;118.99
65559;DHT22;52203;51.998;5.140;2022-11-14T17:00:46;0.19;118.99
65559;DHT22;52203;51.998;5.140;2022-11-14T17:03:12;0.18;118.99
65559;DHT22;52203;51.998;5.140;2022-11-14T17:05:42;0.16;118.99
65559;DHT22;52203;51.998;5.140;2022-11-14T17:08:08;0.19;118.99
65559;DHT22;52203;51.998;5.140;2022-11-14T17:10:41;0.16;118.99
65559;DHT22;52203;51.998;5.140;2022-11-14T17:13:07;0.09;118.99
65559;DHT22;52203;51.998;5.140;2022-11-14T17:15:36;0.07;118.99
65559;DHT22;52203;51.998;5.140;2022-11-14T17:18:18;-0.07;118.99
65559;DHT22;52203;51.998;5.140;2022-11-14T17:20:47;-0.08;118.99
65559;DHT22;52203;51.998;5.140;2022-11-14T17:23:18;-0.12;118.99
65559;DHT22;52203;51.998;5.140;2022-11-14T17:28:28;-0.21;118.99
65559;DHT22;52203;51.998;5.140;2022-11-14T17:31:12;-0.26;118.99
65559;DHT22;52203;51.998;5.140;2022-11-14T17:34:07;-0.21;118.99
65559;DHT22;52203;51.998;5.140;2022-11-14T17:36:44;-0.11;118.99
65559;DHT22;52203;51.998;5.140;2022-11-14T17:39:47;-0.13;118.99
65559;DHT22;52203;51.998;5.140;2022-11-14T17:42:36;-0.14;118.99
65559;DHT22;52203;51.998;5.140;2022-11-14T17:45:11;-0.15;118.99
65559;DHT22;52203;51.998;5.140;2022-11-14T17:48:19;-0.26;118.99
65559;DHT22;52203;51.998;5.140;2022-11-14T17:51:14;-0.29;118.99
65559;DHT22;52203;51.998;5.140;2022-11-14T17:53:55;-0.37;118.99
65559;DHT22;52203;51.998;5.140;2022-11-14T18:03:36;-0.50;118.99
65559;DHT22;52203;51.998;5.140;2022-11-14T18:06:50;-0.53;118.99
65559;DHT22;52203;51.998;5.140;2022-11-14T18:27:51;-0.51;118.99
65559;DHT22;52203;51.998;5.140;2022-11-14T18:34:50;-0.60;118.99
65559;DHT22;52203;51.998;5.140;2022-11-14T18:41:40;-0.57;118.99
65559;DHT22;52203;51.998;5.140;2022-11-14T19:09:48;-0.83;118.99
65559;DHT22;52203;51.998;5.140;2022-11-14T19:16:33;-0.97;118.99
65559;DHT22;52203;51.998;5.140;2022-11-14T19:26:41;-0.67;118.99
65559;DHT22;52203;51.998;5.140;2022-11-14T19:40:35;-0.40;118.99
65559;DHT22;52203;51.998;5.140;2022-11-14T19:43:30;-0.25;118.99
65559;DHT22;52203;51.998;5.140;2022-11-14T19:49:55;-0.11;118.99
65559;DHT22;52203;51.998;5.140;2022-11-14T19:56:18;0.09;118.99
65559;DHT22;52203;51.998;5.140;2022-11-14T19:58:49;0.48;118.99
65559;DHT22;52203;51.998;5.140;2022-11-14T20:01:24;0.63;118.99
65559;DHT22;52203;51.998;5.140;2022-11-14T20:04:12;0.65;118.99
65559;DHT22;52203;51.998;5.140;2022-11-14T20:06:43;0.74;118.99
65559;DHT22;52203;51.998;5.140;2022-11-14T20:09:11;0.74;118.99
65559;DHT22;52203;51.998;5.140;2022-11-14T20:11:37;0.65;118.99
65559;DHT22;52203;51.998;5.140;2022-11-14T20:14:03;0.78;118.99
65559;DHT22;52203;51.998;5.140;2022-11-14T20:16:34;0.96;118.99
65559;DHT22;52203;51.998;5.140;2022-11-14T20:19:00;0.89;118.99
65559;DHT22;52203;51.998;5.140;2022-11-14T20:21:28;0.97;118.99
65559;DHT22;52203;51.998;5.140;2022-11-14T20:23:54;0.92;118.99
65559;DHT22;52203;51.998;5.140;2022-11-14T20:26:21;0.91;118.99
65559;DHT22;52203;51.998;5.140;2022-11-14T20:28:47;0.89;118.99
65559;DHT22;52203;51.998;5.140;2022-11-14T20:31:17;0.91;118.99
65559;DHT22;52203;51.998;5.140;2022-11-14T20:33:45;0.90;118.99
65559;DHT22;52203;51.998;5.140;2022-11-14T20:36:13;0.94;118.99
65559;DHT22;52203;51.998;5.140;2022-11-14T20:38:42;0.95;118.99
65559;DHT22;52203;51.998;5.140;2022-11-14T20:41:11;0.94;118.99
65559;DHT22;52203;51.998;5.140;2022-11-14T20:43:36;0.94;118.99
65559;DHT22;52203;51.998;5.140;2022-11-14T20:46:05;0.93;118.99
65559;DHT22;52203;51.998;5.140;2022-11-14T20:48:32;0.99;118.99
65559;DHT22;52203;51.998;5.140;2022-11-14T20:51:27;0.97;118.99
65559;DHT22;52203;51.998;5.140;2022-11-14T20:53:53;1.01;118.99
65559;DHT22;52203;51.998;5.140;2022-11-14T20:56:20;1.01;118.99
65559;DHT22;52203;51.998;5.140;2022-11-14T20:58:48;1.01;118.99
65559;DHT22;52203;51.998;5.140;2022-11-14T21:01:16;1.02;118.99
65559;DHT22;52203;51.998;5.140;2022-11-14T21:03:41;1.05;118.99
65559;DHT22;52203;51.998;5.140;2022-11-14T21:06:10;1.04;118.99
65559;DHT22;52203;51.998;5.140;2022-11-14T21:08:37;1.10;118.99
65559;DHT22;52203;51.998;5.140;2022-11-14T21:11:05;1.12;118.99
65559;DHT22;52203;51.998;5.140;2022-11-14T21:13:34;1.11;118.99
65559;DHT22;52203;51.998;5.140;2022-11-14T21:16:20;1.12;118.99
65559;DHT22;52203;51.998;5.140;2022-11-14T21:18:46;1.21;118.99
65559;DHT22;52203;51.998;5.140;2022-11-14T21:21:16;1.17;118.99
65559;DHT22;52203;51.998;5.140;2022-11-14T21:23:45;1.21;118.99
65559;DHT22;52203;51.998;5.140;2022-11-14T21:26:32;1.19;118.99
65559;DHT22;52203;51.998;5.140;2022-11-14T21:29:00;1.21;118.99
65559;DHT22;52203;51.998;5.140;2022-11-14T21:31:26;1.22;118.99
65559;DHT22;52203;51.998;5.140;2022-11-14T21:33:56;1.25;118.99
65559;DHT22;52203;51.998;5.140;2022-11-14T21:36:22;1.29;118.99
65559;DHT22;52203;51.998;5.140;2022-11-14T21:38:48;1.28;118.99
65559;DHT22;52203;51.998;5.140;2022-11-14T21:41:16;1.34;118.99
65559;DHT22;52203;51.998;5.140;2022-11-14T21:43:43;1.31;118.99
65559;DHT22;52203;51.998;5.140;2022-11-14T21:46:10;1.32;118.99
65559;DHT22;52203;51.998;5.140;2022-11-14T21:48:40;1.39;118.99
65559;DHT22;52203;51.998;5.140;2022-11-14T21:51:12;1.39;118.99
65559;DHT22;52203;51.998;5.140;2022-11-14T21:53:39;1.40;118.99
65559;DHT22;52203;51.998;5.140;2022-11-14T21:58:37;1.48;118.99
65559;DHT22;52203;51.998;5.140;2022-11-14T22:01:09;1.46;118.99
65559;DHT22;52203;51.998;5.140;2022-11-14T22:03:36;1.49;118.99
65559;DHT22;52203;51.998;5.140;2022-11-14T22:06:21;1.47;118.99
65559;DHT22;52203;51.998;5.140;2022-11-14T22:08:47;1.47;118.99
65559;DHT22;52203;51.998;5.140;2022-11-14T22:11:15;1.48;118.99
65559;DHT22;52203;51.998;5.140;2022-11-14T22:13:41;1.52;118.99
65559;DHT22;52203;51.998;5.140;2022-11-14T22:16:08;1.53;118.99
65559;DHT22;52203;51.998;5.140;2022-11-14T22:18:34;1.53;118.99
65559;DHT22;52203;51.998;5.140;2022-11-14T22:20:59;1.51;118.99
65559;DHT22;52203;51.998;5.140;2022-11-14T22:23:26;1.52;118.99
65559;DHT22;52203;51.998;5.140;2022-11-14T22:25:57;1.54;118.99
65559;DHT22;52203;51.998;5.140;2022-11-14T22:28:23;1.58;118.99
65559;DHT22;52203;51.998;5.140;2022-11-14T22:31:06;1.52;118.99
65559;DHT22;52203;51.998;5.140;2022-11-14T22:33:35;1.55;118.99
65559;DHT22;52203;51.998;5.140;2022-11-14T22:36:27;1.55;118.99
65559;DHT22;52203;51.998;5.140;2022-11-14T22:38:53;1.57;118.99
65559;DHT22;52203;51.998;5.140;2022-11-14T22:41:21;1.60;118.99
65559;DHT22;52203;51.998;5.140;2022-11-14T22:43:47;1.65;118.99
65559;DHT22;52203;51.998;5.140;2022-11-14T22:46:15;1.69;118.99
65559;DHT22;52203;51.998;5.140;2022-11-14T22:48:42;1.71;118.99
65559;DHT22;52203;51.998;5.140;2022-11-14T22:51:13;1.66;118.99
65559;DHT22;52203;51.998;5.140;2022-11-14T22:53:39;1.71;118.99
65559;DHT22;52203;51.998;5.140;2022-11-14T22:56:07;1.69;118.99
65559;DHT22;52203;51.998;5.140;2022-11-14T22:58:36;1.72;118.99
65559;DHT22;52203;51.998;5.140;2022-11-14T23:01:24;1.70;118.99
65559;DHT22;52203;51.998;5.140;2022-11-14T23:03:55;1.71;118.99
65559;DHT22;52203;51.998;5.140;2022-11-14T23:06:21;1.72;118.99
65559;DHT22;52203;51.998;5.140;2022-11-14T23:08:47;1.75;118.99
65559;DHT22;52203;51.998;5.140;2022-11-14T23:11:18;1.76;118.99
65559;DHT22;52203;51.998;5.140;2022-11-14T23:13:46;1.76;118.99
65559;DHT22;52203;51.998;5.140;2022-11-14T23:16:14;1.78;118.99
65559;DHT22;52203;51.998;5.140;2022-11-14T23:18:40;1.77;118.99
65559;DHT22;52203;51.998;5.140;2022-11-14T23:21:17;1.83;118.99
65559;DHT22;52203;51.998;5.140;2022-11-14T23:23:43;1.81;118.99
65559;DHT22;52203;51.998;5.140;2022-11-14T23:26:11;1.81;118.99
65559;DHT22;52203;51.998;5.140;2022-11-14T23:28:37;1.85;118.99
65559;DHT22;52203;51.998;5.140;2022-11-14T23:31:03;1.87;118.99
65559;DHT22;52203;51.998;5.140;2022-11-14T23:33:29;1.90;118.99
65559;DHT22;52203;51.998;5.140;2022-11-14T23:35:55;1.95;118.99
65559;DHT22;52203;51.998;5.140;2022-11-14T23:38:20;1.88;118.99
65559;DHT22;52203;51.998;5.140;2022-11-14T23:40:57;1.96;118.99
65559;DHT22;52203;51.998;5.140;2022-11-14T23:43:23;1.95;118.99
65559;DHT22;52203;51.998;5.140;2022-11-14T23:45:49;1.94;118.99
65559;DHT22;52203;51.998;5.140;2022-11-14T23:48:15;1.94;118.99
65559;DHT22;52203;51.998;5.140;2022-11-14T23:50:42;2.01;118.99
65559;DHT22;52203;51.998;5.140;2022-11-14T23:53:08;2.02;118.99
65559;DHT22;52203;51.998;5.140;2022-11-14T23:55:34;2.05;118.99
65559;DHT22;52203;51.998;5.140;2022-11-14T23:58:00;2.02;118.99
